ROMMA est une association bénévole à but non lucratif. Votre soutien est indispensable : ADHERER à ROMMA ou FAIRE un DON

Nice - (06, Alpes-Maritimes)

Côte-d'Azur (190 m)   Longitude: 07° 14' E   Latitude: 43° 43' N Station partenaire n°136
 

Détail journalier du     <<     >>

Température Precipitation Humidité Pression Vent Dir Rafale Dir. rafale Ensol.
Heure (°C) (mm) (%) (hPa) (km/h) (km/h) (min)
01:00 18.008910133NNO13NO0
02:00 17.309010132---13O0
03:00 18.308310135ONO19NO0
04:00 17.808410133NO13NO0
05:00 18.307810125NNO19NNO0
06:00 17.108410121N8NE0
07:00 17.0086101200---0
08:00 16.8087101200---0
09:00 19.708010131NNE8NNO20
10:00 21.807510132NNE10ESE60
11:00 23.306810133NO10ONO60
12:00 23.806610136OSO15OSO40
13:00 23.906710138SSE24S60
14:00 24.4065101211SE26SE60
15:00 23.9067101112SE26SE60
16:00 22.107410119SSE21SSE20
17:00 21.507910116SSO16S0
18:00 20.708210106SSO19SSO0
19:00 20.308510105S15S0
20:00 20.108710101SSO8SSO0
21:00 20.108710101---8SE0
22:00 19.908810092SSE8SSE0
23:00 19.7090100905S0
minuit 19.6089100900---0

Graphique du 01-10-2019

 

Serveur OMMA